Nearby METAR Reports

 

KSYN - Stanton, Minnesota, USA
Distance from station: NW 20mi, 33km
Updated: Mon, 22-Oct-2018 6:35pm CDT
Clear
Clear
 Wind from WNW
Wind: WNW 10 mph , 17 km/h
Temperature: 52°F , 11°C
Dew Point: 27°F , -3°C
Humidity: 38%
Barometer: 30.10 inHg , 1019.3 hPa
Clouds: Clear
Visibility: 10 miles , 16 km
2018/10/22 23:35 KSYN 222335Z AUTO 29009KT 10SM CLR 11/M03 A3010 RMK AO2 T01061031
KTOB - Dodge Center, Minnesota, USA
Distance from station: SSW 21mi, 34km
Updated: Mon, 22-Oct-2018 6:35pm CDT
Clear
Clear
 Wind from WNW
Wind: WNW 10 mph , 17 km/h, Gust: 18 mph , 30 km/h
Temperature: 52°F , 11°C
Dew Point: 25°F , -4°C
Humidity: 35%
Barometer: 30.11 inHg , 1019.6 hPa
Clouds: Clear
Visibility: 10 miles , 16 km
2018/10/22 23:35 KTOB 222335Z AUTO 29009G16KT 10SM CLR 11/M04 A3011 RMK AO2
K9MN - St Mary Hospital, Minnesota, USA
Distance from station: SSE 22mi, 35km
Updated: Mon, 22-Oct-2018 6:35pm CDT
Clear
Clear
 Wind from WNW
Wind: WNW 13 mph , 20 km/h, Gust: 24 mph , 39 km/h
Temperature: 55°F , 13°C
Dew Point: 27°F , -3°C
Humidity: 33%
Barometer: 30.09 inHg , 1019 hPa
Clouds: Clear
Visibility: 10 miles , 16 km
2018/10/22 23:35 K9MN 222335Z AUTO 29011G21KT 10SM CLR 13/M03 A3009 RMK AO1 T01251030
 
KRGK - Red Wing, Minnesota, USA
Distance from station: NNE 22mi, 35km
Updated: Mon, 22-Oct-2018 6:35pm CDT
Clear
Clear
 Wind from WNW
Wind: WNW 7 mph , 11 km/h
Temperature: 54°F , 12°C
Dew Point: 23°F , -5°C
Humidity: 30%
Barometer: 30.07 inHg , 1018.3 hPa
Clouds: Clear
Visibility: 10 miles , 16 km
2018/10/22 23:35 KRGK 222335Z AUTO 30006KT 10SM CLR 12/M05 A3007 RMK AO2
KRST - Rochester, Minnesota, USA
Distance from station: SSE 29mi, 47km
Updated: Mon, 22-Oct-2018 5:54pm CDT
Clear
Clear
 Wind from WNW
Wind: WNW 10 mph , 17 km/h
Temperature: 54°F , 12°C
Dew Point: 28°F , -2°C
Humidity: 38%
Barometer: 30.08 inHg , 1018.6 hPa
Clouds: Clear
Visibility: 10 miles , 16 km
2018/10/22 22:54 KRST 222254Z 30009KT 10SM CLR 12/M02 A3008 RMK AO2 SLP195 T01221017
KOWA - Owatonna, Minnesota, USA
Distance from station: WSW 31mi, 50km
Updated: Mon, 22-Oct-2018 6:34pm CDT
Clear
Clear
 Wind from WNW
Wind: WNW 9 mph , 15 km/h
Temperature: 52°F , 11°C
Dew Point: 28°F , -2°C
Humidity: 41%
Barometer: 30.12 inHg , 1020 hPa
Clouds: Clear
Visibility: 10 miles , 16 km
2018/10/22 23:34 KOWA 222334Z AUTO 29008KT 10SM CLR 11/M02 A3012 RMK AO2
 
KFBL - Faribault Muni, Minnesota, USA
Distance from station: W 32mi, 51km
Updated: Thu, 20-Sep-2018 6:41pm CDT
NOT Current

 Wind from SSE
Wind: SSE 18 mph , 30 km/h, Gust: 45 mph , 72 km/h
Visibility: 4 miles , 6 km
2018/09/20 23:41 KFBL 202341Z AUTO 15016G39KT 122V182 4SM +VCTSRA SCT010 BKN070 21/21 A2951 RMK AO2 P0008 LTG DSNT ALQDS
KSGS - South St Paul, Minnesota, USA
Distance from station: NNW 43mi, 69km
Updated: Mon, 22-Oct-2018 6:35pm CDT
Clear
Clear
 Wind from NW
Wind: NW 14 mph , 22 km/h, Gust: 18 mph , 30 km/h
Temperature: 55°F , 13°C
Dew Point: 19°F , -7°C
Humidity: 24%
Barometer: 30.09 inHg , 1019 hPa
Clouds: Clear
Visibility: 10 miles , 16 km
2018/10/22 23:35 KSGS 222335Z AUTO 31012G16KT 10SM CLR 13/M07 A3009 RMK AO2 T01251068
KAUM - Austin Muni, Minnesota, USA
Distance from station: SSW 46mi, 73km
Updated: Mon, 22-Oct-2018 6:36pm CDT
Clear
Clear
 Wind from NW
Wind: NW 13 mph , 20 km/h, Gust: 20 mph , 31 km/h
Temperature: 54°F , 12°C
Dew Point: 27°F , -3°C
Humidity: 35%
Barometer: 30.12 inHg , 1020 hPa
Clouds: Clear
Visibility: 10 miles , 16 km
2018/10/22 23:36 KAUM 222336Z AUTO 31011G17KT 10SM CLR 12/M03 A3012 RMK AO2
 
KACQ - Waseca, Minnesota, USA
Distance from station: WSW 46mi, 75km
Updated: Mon, 22-Oct-2018 6:35pm CDT
Clear
Clear
 Wind from WNW
Wind: WNW 13 mph , 20 km/h
Temperature: 52°F , 11°C
Dew Point: 28°F , -2°C
Humidity: 41%
Barometer: 30.14 inHg , 1020.7 hPa
Clouds: Clear
Visibility: 10 miles , 16 km
2018/10/22 23:35 KACQ 222335Z AUTO 30011KT 10SM CLR 11/M02 A3014 RMK AO2
KSTP - St. Paul, Minnesota, USA
Distance from station: NNW 47mi, 76km
Updated: Mon, 22-Oct-2018 5:53pm CDT
Clear
Clear
 Wind from NW
Wind: NW 17 mph , 28 km/h, Gust: 33 mph , 54 km/h
Temperature: 55°F , 13°C
Dew Point: 21°F , -6°C
Humidity: 26%
Barometer: 30.08 inHg , 1018.6 hPa
Clouds: Clear
Visibility: 10 miles , 16 km
2018/10/22 22:53 KSTP 222253Z 31015G29KT 10SM CLR 13/M06 A3008 RMK AO2 PK WND 30029/2246 SLP190 T01331056
KMSP - Minneapolis, Minnesota, USA
Distance from station: NW 49mi, 78km
Updated: Mon, 22-Oct-2018 5:53pm CDT
Clear
Clear
 Wind from NW
Wind: NW 16 mph , 26 km/h, Gust: 26 mph , 43 km/h
Temperature: 55°F , 13°C
Dew Point: 25°F , -4°C
Humidity: 31%
Barometer: 30.08 inHg , 1018.6 hPa
Clouds: Clear
Visibility: 10 miles , 16 km
2018/10/22 22:53 KMSP 222253Z 31014G23KT 10SM CLR 13/M04 A3008 RMK AO2 PK WND 31028/2235 SLP191 T01331039